sensor_id;sensor_type;location;lat;lon;timestamp;P1;durP1;ratioP1;P2;durP2;ratioP2
1935;SDS011;969;49.892;10.896;2023-12-14T00:00:43;1.40;;;1.10;;
1935;SDS011;969;49.892;10.896;2023-12-14T00:03:09;1.40;;;1.13;;
1935;SDS011;969;49.892;10.896;2023-12-14T00:05:34;1.57;;;1.20;;
1935;SDS011;969;49.892;10.896;2023-12-14T00:08:00;2.47;;;1.20;;
1935;SDS011;969;49.892;10.896;2023-12-14T00:10:26;1.40;;;1.07;;
1935;SDS011;969;49.892;10.896;2023-12-14T00:12:51;2.90;;;1.37;;
1935;SDS011;969;49.892;10.896;2023-12-14T00:15:19;1.93;;;1.33;;
1935;SDS011;969;49.892;10.896;2023-12-14T00:17:45;2.23;;;1.20;;
1935;SDS011;969;49.892;10.896;2023-12-14T00:20:10;1.23;;;1.03;;
1935;SDS011;969;49.892;10.896;2023-12-14T00:22:36;1.20;;;1.10;;
1935;SDS011;969;49.892;10.896;2023-12-14T00:25:03;3.17;;;1.20;;
1935;SDS011;969;49.892;10.896;2023-12-14T00:27:29;1.50;;;1.30;;
1935;SDS011;969;49.892;10.896;2023-12-14T00:29:55;1.50;;;1.00;;
1935;SDS011;969;49.892;10.896;2023-12-14T00:32:20;1.60;;;1.23;;
1935;SDS011;969;49.892;10.896;2023-12-14T00:34:46;1.33;;;1.20;;
1935;SDS011;969;49.892;10.896;2023-12-14T00:37:11;1.50;;;1.00;;
1935;SDS011;969;49.892;10.896;2023-12-14T00:39:37;1.60;;;1.10;;
1935;SDS011;969;49.892;10.896;2023-12-14T00:42:02;2.37;;;1.20;;
1935;SDS011;969;49.892;10.896;2023-12-14T00:44:28;1.73;;;1.37;;
1935;SDS011;969;49.892;10.896;2023-12-14T00:46:54;1.70;;;1.03;;
1935;SDS011;969;49.892;10.896;2023-12-14T00:49:19;1.60;;;1.30;;
1935;SDS011;969;49.892;10.896;2023-12-14T00:51:45;4.20;;;2.17;;
1935;SDS011;969;49.892;10.896;2023-12-14T00:54:10;1.90;;;1.40;;
1935;SDS011;969;49.892;10.896;2023-12-14T00:56:36;2.77;;;1.40;;
1935;SDS011;969;49.892;10.896;2023-12-14T00:59:02;1.97;;;1.40;;
1935;SDS011;969;49.892;10.896;2023-12-14T01:01:27;1.87;;;1.33;;
1935;SDS011;969;49.892;10.896;2023-12-14T01:03:53;1.87;;;1.30;;
1935;SDS011;969;49.892;10.896;2023-12-14T01:06:18;1.43;;;1.03;;
1935;SDS011;969;49.892;10.896;2023-12-14T01:08:44;1.50;;;1.20;;
1935;SDS011;969;49.892;10.896;2023-12-14T01:11:10;2.30;;;1.43;;
1935;SDS011;969;49.892;10.896;2023-12-14T01:13:35;1.13;;;0.90;;
1935;SDS011;969;49.892;10.896;2023-12-14T01:16:01;1.60;;;1.17;;
1935;SDS011;969;49.892;10.896;2023-12-14T01:18:27;1.20;;;1.00;;
1935;SDS011;969;49.892;10.896;2023-12-14T01:20:52;2.50;;;1.40;;
1935;SDS011;969;49.892;10.896;2023-12-14T01:23:18;1.13;;;0.90;;
1935;SDS011;969;49.892;10.896;2023-12-14T01:25:43;1.30;;;1.03;;
1935;SDS011;969;49.892;10.896;2023-12-14T01:28:09;1.53;;;1.10;;
1935;SDS011;969;49.892;10.896;2023-12-14T01:30:35;1.50;;;1.10;;
1935;SDS011;969;49.892;10.896;2023-12-14T01:33:00;1.80;;;1.23;;
1935;SDS011;969;49.892;10.896;2023-12-14T01:35:26;1.53;;;1.10;;
1935;SDS011;969;49.892;10.896;2023-12-14T01:37:53;1.43;;;0.90;;
1935;SDS011;969;49.892;10.896;2023-12-14T01:40:19;1.30;;;1.10;;
1935;SDS011;969;49.892;10.896;2023-12-14T01:42:45;1.20;;;1.10;;
1935;SDS011;969;49.892;10.896;2023-12-14T01:45:10;1.23;;;0.90;;
1935;SDS011;969;49.892;10.896;2023-12-14T01:47:38;2.10;;;1.50;;
1935;SDS011;969;49.892;10.896;2023-12-14T01:50:04;1.67;;;1.50;;
1935;SDS011;969;49.892;10.896;2023-12-14T01:52:29;1.27;;;0.90;;
1935;SDS011;969;49.892;10.896;2023-12-14T01:54:55;1.37;;;0.97;;
1935;SDS011;969;49.892;10.896;2023-12-14T01:57:23;1.60;;;1.10;;
1935;SDS011;969;49.892;10.896;2023-12-14T01:59:49;1.47;;;1.03;;
1935;SDS011;969;49.892;10.896;2023-12-14T02:02:15;1.30;;;1.20;;
1935;SDS011;969;49.892;10.896;2023-12-14T02:04:40;1.77;;;1.00;;
1935;SDS011;969;49.892;10.896;2023-12-14T02:07:06;1.57;;;1.00;;
1935;SDS011;969;49.892;10.896;2023-12-14T02:09:32;1.50;;;1.00;;
1935;SDS011;969;49.892;10.896;2023-12-14T02:11:57;1.10;;;0.93;;
1935;SDS011;969;49.892;10.896;2023-12-14T02:14:23;2.00;;;1.07;;
1935;SDS011;969;49.892;10.896;2023-12-14T02:16:48;1.30;;;1.00;;
1935;SDS011;969;49.892;10.896;2023-12-14T02:19:14;1.77;;;1.50;;
1935;SDS011;969;49.892;10.896;2023-12-14T02:21:40;1.80;;;0.93;;
1935;SDS011;969;49.892;10.896;2023-12-14T02:24:05;1.43;;;1.20;;
1935;SDS011;969;49.892;10.896;2023-12-14T02:26:31;1.50;;;1.30;;
1935;SDS011;969;49.892;10.896;2023-12-14T02:28:56;1.60;;;1.00;;
1935;SDS011;969;49.892;10.896;2023-12-14T02:31:22;1.50;;;1.00;;
1935;SDS011;969;49.892;10.896;2023-12-14T02:33:48;2.23;;;1.13;;
1935;SDS011;969;49.892;10.896;2023-12-14T02:36:13;1.40;;;1.10;;
1935;SDS011;969;49.892;10.896;2023-12-14T02:38:39;1.27;;;0.90;;
1935;SDS011;969;49.892;10.896;2023-12-14T02:41:05;1.43;;;1.00;;
1935;SDS011;969;49.892;10.896;2023-12-14T02:43:30;1.23;;;0.83;;
1935;SDS011;969;49.892;10.896;2023-12-14T02:45:56;1.40;;;1.10;;
1935;SDS011;969;49.892;10.896;2023-12-14T02:48:26;1.40;;;0.90;;
1935;SDS011;969;49.892;10.896;2023-12-14T02:50:53;1.60;;;1.13;;
1935;SDS011;969;49.892;10.896;2023-12-14T02:53:18;2.70;;;1.00;;
1935;SDS011;969;49.892;10.896;2023-12-14T02:55:44;1.70;;;1.27;;
1935;SDS011;969;49.892;10.896;2023-12-14T02:58:09;1.33;;;1.17;;
1935;SDS011;969;49.892;10.896;2023-12-14T03:00:35;1.17;;;0.90;;
1935;SDS011;969;49.892;10.896;2023-12-14T03:03:01;1.47;;;1.13;;
1935;SDS011;969;49.892;10.896;2023-12-14T03:05:26;1.60;;;1.10;;
1935;SDS011;969;49.892;10.896;2023-12-14T03:07:52;1.50;;;1.00;;
1935;SDS011;969;49.892;10.896;2023-12-14T03:10:18;2.20;;;1.40;;
1935;SDS011;969;49.892;10.896;2023-12-14T03:12:43;2.67;;;1.30;;
1935;SDS011;969;49.892;10.896;2023-12-14T03:15:09;1.30;;;1.00;;
1935;SDS011;969;49.892;10.896;2023-12-14T03:17:35;1.53;;;1.03;;
1935;SDS011;969;49.892;10.896;2023-12-14T03:20:01;1.97;;;1.20;;
1935;SDS011;969;49.892;10.896;2023-12-14T03:22:28;1.20;;;0.90;;
1935;SDS011;969;49.892;10.896;2023-12-14T03:24:53;1.30;;;0.90;;
1935;SDS011;969;49.892;10.896;2023-12-14T03:27:19;1.40;;;1.17;;
1935;SDS011;969;49.892;10.896;2023-12-14T03:29:45;1.77;;;1.07;;
1935;SDS011;969;49.892;10.896;2023-12-14T03:32:10;2.20;;;1.07;;
1935;SDS011;969;49.892;10.896;2023-12-14T03:34:36;1.23;;;0.80;;
1935;SDS011;969;49.892;10.896;2023-12-14T03:37:01;1.27;;;1.03;;
1935;SDS011;969;49.892;10.896;2023-12-14T03:39:27;1.40;;;1.03;;
1935;SDS011;969;49.892;10.896;2023-12-14T03:41:53;1.63;;;1.10;;
1935;SDS011;969;49.892;10.896;2023-12-14T03:44:18;1.87;;;1.00;;
1935;SDS011;969;49.892;10.896;2023-12-14T03:46:44;1.10;;;1.00;;
1935;SDS011;969;49.892;10.896;2023-12-14T03:49:09;1.50;;;1.20;;
1935;SDS011;969;49.892;10.896;2023-12-14T03:51:35;1.30;;;1.00;;
1935;SDS011;969;49.892;10.896;2023-12-14T03:54:01;1.10;;;0.83;;
1935;SDS011;969;49.892;10.896;2023-12-14T03:56:26;1.50;;;1.30;;
1935;SDS011;969;49.892;10.896;2023-12-14T03:58:52;1.97;;;1.20;;
1935;SDS011;969;49.892;10.896;2023-12-14T04:01:18;1.20;;;1.00;;
1935;SDS011;969;49.892;10.896;2023-12-14T04:03:44;1.73;;;1.00;;
1935;SDS011;969;49.892;10.896;2023-12-14T04:06:11;1.33;;;1.03;;
1935;SDS011;969;49.892;10.896;2023-12-14T04:08:37;1.30;;;1.20;;
1935;SDS011;969;49.892;10.896;2023-12-14T04:11:02;1.23;;;0.90;;
1935;SDS011;969;49.892;10.896;2023-12-14T04:13:28;1.30;;;0.80;;
1935;SDS011;969;49.892;10.896;2023-12-14T04:15:54;1.20;;;1.07;;
1935;SDS011;969;49.892;10.896;2023-12-14T04:18:19;1.40;;;0.90;;
1935;SDS011;969;49.892;10.896;2023-12-14T04:20:45;1.33;;;1.17;;
1935;SDS011;969;49.892;10.896;2023-12-14T04:23:10;1.50;;;1.20;;
1935;SDS011;969;49.892;10.896;2023-12-14T04:25:36;1.63;;;1.17;;
1935;SDS011;969;49.892;10.896;2023-12-14T04:28:01;1.23;;;0.90;;
1935;SDS011;969;49.892;10.896;2023-12-14T04:30:27;1.57;;;1.10;;
1935;SDS011;969;49.892;10.896;2023-12-14T04:32:53;1.40;;;1.10;;
1935;SDS011;969;49.892;10.896;2023-12-14T04:35:18;1.00;;;0.90;;
1935;SDS011;969;49.892;10.896;2023-12-14T04:37:47;1.23;;;0.93;;
1935;SDS011;969;49.892;10.896;2023-12-14T04:40:12;1.17;;;0.90;;
1935;SDS011;969;49.892;10.896;2023-12-14T04:42:38;1.50;;;1.00;;
1935;SDS011;969;49.892;10.896;2023-12-14T04:45:03;1.23;;;0.97;;
1935;SDS011;969;49.892;10.896;2023-12-14T04:47:30;1.93;;;1.40;;
1935;SDS011;969;49.892;10.896;2023-12-14T04:49:55;1.10;;;0.90;;
1935;SDS011;969;49.892;10.896;2023-12-14T04:52:21;1.60;;;1.20;;
1935;SDS011;969;49.892;10.896;2023-12-14T04:54:46;2.47;;;1.10;;
1935;SDS011;969;49.892;10.896;2023-12-14T04:57:12;2.00;;;1.20;;
1935;SDS011;969;49.892;10.896;2023-12-14T04:59:40;3.77;;;0.90;;
1935;SDS011;969;49.892;10.896;2023-12-14T05:02:06;1.30;;;1.00;;
1935;SDS011;969;49.892;10.896;2023-12-14T05:04:32;1.20;;;1.10;;
1935;SDS011;969;49.892;10.896;2023-12-14T05:06:58;1.50;;;0.87;;
1935;SDS011;969;49.892;10.896;2023-12-14T05:09:23;1.20;;;0.90;;
1935;SDS011;969;49.892;10.896;2023-12-14T05:11:49;1.00;;;0.70;;
1935;SDS011;969;49.892;10.896;2023-12-14T05:14:14;1.43;;;0.90;;
1935;SDS011;969;49.892;10.896;2023-12-14T05:16:40;1.03;;;0.87;;
1935;SDS011;969;49.892;10.896;2023-12-14T05:19:05;1.37;;;1.03;;
1935;SDS011;969;49.892;10.896;2023-12-14T05:21:31;1.20;;;0.90;;
1935;SDS011;969;49.892;10.896;2023-12-14T05:23:57;1.60;;;0.90;;
1935;SDS011;969;49.892;10.896;2023-12-14T05:26:22;1.80;;;1.00;;
1935;SDS011;969;49.892;10.896;2023-12-14T05:28:48;1.63;;;1.30;;
1935;SDS011;969;49.892;10.896;2023-12-14T05:31:14;1.53;;;1.00;;
1935;SDS011;969;49.892;10.896;2023-12-14T05:33:39;1.60;;;1.03;;
1935;SDS011;969;49.892;10.896;2023-12-14T05:36:05;1.20;;;0.90;;
1935;SDS011;969;49.892;10.896;2023-12-14T05:38:35;1.00;;;0.90;;
1935;SDS011;969;49.892;10.896;2023-12-14T05:41:04;1.70;;;1.47;;
1935;SDS011;969;49.892;10.896;2023-12-14T05:43:29;1.40;;;1.30;;
1935;SDS011;969;49.892;10.896;2023-12-14T05:45:55;1.63;;;1.07;;
1935;SDS011;969;49.892;10.896;2023-12-14T05:48:21;1.73;;;1.10;;
1935;SDS011;969;49.892;10.896;2023-12-14T05:50:46;1.23;;;0.90;;
1935;SDS011;969;49.892;10.896;2023-12-14T05:53:12;3.00;;;1.03;;
1935;SDS011;969;49.892;10.896;2023-12-14T05:55:38;1.10;;;0.90;;
1935;SDS011;969;49.892;10.896;2023-12-14T05:58:06;1.20;;;0.97;;
1935;SDS011;969;49.892;10.896;2023-12-14T06:00:32;1.40;;;1.00;;
1935;SDS011;969;49.892;10.896;2023-12-14T06:02:59;1.60;;;1.10;;
1935;SDS011;969;49.892;10.896;2023-12-14T06:05:25;1.30;;;1.10;;
1935;SDS011;969;49.892;10.896;2023-12-14T06:07:51;1.83;;;1.13;;
1935;SDS011;969;49.892;10.896;2023-12-14T06:10:17;1.40;;;1.30;;
1935;SDS011;969;49.892;10.896;2023-12-14T06:12:42;1.20;;;0.90;;
1935;SDS011;969;49.892;10.896;2023-12-14T06:15:08;1.20;;;1.00;;
1935;SDS011;969;49.892;10.896;2023-12-14T06:17:35;1.20;;;1.00;;
1935;SDS011;969;49.892;10.896;2023-12-14T06:20:02;1.70;;;1.10;;
1935;SDS011;969;49.892;10.896;2023-12-14T06:22:29;1.37;;;1.00;;
1935;SDS011;969;49.892;10.896;2023-12-14T06:24:54;1.03;;;0.90;;
1935;SDS011;969;49.892;10.896;2023-12-14T06:27:20;1.10;;;0.80;;
1935;SDS011;969;49.892;10.896;2023-12-14T06:29:51;1.70;;;1.20;;
1935;SDS011;969;49.892;10.896;2023-12-14T06:32:17;1.40;;;1.13;;
1935;SDS011;969;49.892;10.896;2023-12-14T06:34:42;1.20;;;0.97;;
1935;SDS011;969;49.892;10.896;2023-12-14T06:37:08;1.67;;;0.97;;
1935;SDS011;969;49.892;10.896;2023-12-14T06:39:34;1.53;;;1.07;;
1935;SDS011;969;49.892;10.896;2023-12-14T06:42:00;1.83;;;1.10;;
1935;SDS011;969;49.892;10.896;2023-12-14T06:44:26;2.70;;;1.10;;
1935;SDS011;969;49.892;10.896;2023-12-14T06:46:52;1.30;;;0.90;;
1935;SDS011;969;49.892;10.896;2023-12-14T06:49:23;1.73;;;1.30;;
1935;SDS011;969;49.892;10.896;2023-12-14T06:51:49;1.70;;;1.20;;
1935;SDS011;969;49.892;10.896;2023-12-14T06:54:14;1.47;;;0.93;;
1935;SDS011;969;49.892;10.896;2023-12-14T06:56:40;1.60;;;1.03;;
1935;SDS011;969;49.892;10.896;2023-12-14T06:59:05;1.60;;;1.00;;
1935;SDS011;969;49.892;10.896;2023-12-14T07:01:31;2.17;;;1.17;;
1935;SDS011;969;49.892;10.896;2023-12-14T07:03:56;1.27;;;1.00;;
1935;SDS011;969;49.892;10.896;2023-12-14T07:06:22;2.00;;;1.30;;
1935;SDS011;969;49.892;10.896;2023-12-14T07:08:48;3.30;;;1.07;;
1935;SDS011;969;49.892;10.896;2023-12-14T07:11:13;1.57;;;1.07;;
1935;SDS011;969;49.892;10.896;2023-12-14T07:13:39;1.20;;;0.90;;
1935;SDS011;969;49.892;10.896;2023-12-14T07:16:06;1.20;;;1.10;;
1935;SDS011;969;49.892;10.896;2023-12-14T07:18:33;1.43;;;1.07;;
1935;SDS011;969;49.892;10.896;2023-12-14T07:21:02;2.13;;;1.07;;
1935;SDS011;969;49.892;10.896;2023-12-14T07:23:28;3.00;;;1.23;;
1935;SDS011;969;49.892;10.896;2023-12-14T07:25:54;1.27;;;1.10;;
1935;SDS011;969;49.892;10.896;2023-12-14T07:28:20;1.57;;;1.17;;
1935;SDS011;969;49.892;10.896;2023-12-14T07:30:46;2.20;;;1.60;;
1935;SDS011;969;49.892;10.896;2023-12-14T07:33:12;1.63;;;0.90;;
1935;SDS011;969;49.892;10.896;2023-12-14T07:35:38;1.73;;;1.00;;
1935;SDS011;969;49.892;10.896;2023-12-14T07:38:03;1.93;;;1.30;;
1935;SDS011;969;49.892;10.896;2023-12-14T07:40:29;3.57;;;1.00;;
1935;SDS011;969;49.892;10.896;2023-12-14T07:42:54;2.50;;;1.10;;
1935;SDS011;969;49.892;10.896;2023-12-14T07:45:20;2.13;;;1.10;;
1935;SDS011;969;49.892;10.896;2023-12-14T07:47:46;1.90;;;1.00;;
1935;SDS011;969;49.892;10.896;2023-12-14T07:50:11;2.57;;;1.20;;
1935;SDS011;969;49.892;10.896;2023-12-14T07:52:37;1.47;;;0.93;;
1935;SDS011;969;49.892;10.896;2023-12-14T07:55:04;1.20;;;1.10;;
1935;SDS011;969;49.892;10.896;2023-12-14T07:57:30;1.67;;;1.40;;
1935;SDS011;969;49.892;10.896;2023-12-14T07:59:56;1.70;;;1.10;;
1935;SDS011;969;49.892;10.896;2023-12-14T08:02:22;1.87;;;1.10;;
1935;SDS011;969;49.892;10.896;2023-12-14T08:04:47;1.67;;;1.27;;
1935;SDS011;969;49.892;10.896;2023-12-14T08:07:13;1.77;;;1.00;;
1935;SDS011;969;49.892;10.896;2023-12-14T08:09:39;1.53;;;1.10;;
1935;SDS011;969;49.892;10.896;2023-12-14T08:12:04;1.90;;;1.10;;
1935;SDS011;969;49.892;10.896;2023-12-14T08:14:32;1.10;;;1.00;;
1935;SDS011;969;49.892;10.896;2023-12-14T08:16:59;1.73;;;1.10;;
1935;SDS011;969;49.892;10.896;2023-12-14T08:19:25;1.40;;;1.10;;
1935;SDS011;969;49.892;10.896;2023-12-14T08:21:50;1.27;;;1.10;;
1935;SDS011;969;49.892;10.896;2023-12-14T08:24:16;1.67;;;1.33;;
1935;SDS011;969;49.892;10.896;2023-12-14T08:26:42;1.80;;;1.03;;
1935;SDS011;969;49.892;10.896;2023-12-14T08:29:07;2.33;;;1.20;;
1935;SDS011;969;49.892;10.896;2023-12-14T08:31:34;1.50;;;1.20;;
1935;SDS011;969;49.892;10.896;2023-12-14T08:33:59;1.60;;;1.00;;
1935;SDS011;969;49.892;10.896;2023-12-14T08:36:25;1.50;;;1.40;;
1935;SDS011;969;49.892;10.896;2023-12-14T08:38:51;1.47;;;1.30;;
1935;SDS011;969;49.892;10.896;2023-12-14T08:41:17;1.53;;;1.23;;
1935;SDS011;969;49.892;10.896;2023-12-14T08:43:43;1.37;;;1.10;;
1935;SDS011;969;49.892;10.896;2023-12-14T08:46:08;1.97;;;1.27;;
1935;SDS011;969;49.892;10.896;2023-12-14T08:48:35;1.20;;;1.00;;
1935;SDS011;969;49.892;10.896;2023-12-14T08:51:00;2.10;;;0.97;;
1935;SDS011;969;49.892;10.896;2023-12-14T08:53:26;1.30;;;1.20;;
1935;SDS011;969;49.892;10.896;2023-12-14T08:55:52;2.40;;;1.23;;
1935;SDS011;969;49.892;10.896;2023-12-14T08:58:18;1.83;;;1.30;;
1935;SDS011;969;49.892;10.896;2023-12-14T09:00:44;1.00;;;0.90;;
1935;SDS011;969;49.892;10.896;2023-12-14T09:03:09;1.80;;;1.13;;
1935;SDS011;969;49.892;10.896;2023-12-14T09:05:35;2.00;;;1.20;;
1935;SDS011;969;49.892;10.896;2023-12-14T09:08:02;2.60;;;1.00;;
1935;SDS011;969;49.892;10.896;2023-12-14T09:10:28;1.83;;;1.60;;
1935;SDS011;969;49.892;10.896;2023-12-14T09:12:53;1.70;;;1.13;;
1935;SDS011;969;49.892;10.896;2023-12-14T09:15:19;1.63;;;1.07;;
1935;SDS011;969;49.892;10.896;2023-12-14T09:17:44;1.53;;;1.10;;
1935;SDS011;969;49.892;10.896;2023-12-14T09:20:10;1.50;;;0.93;;
1935;SDS011;969;49.892;10.896;2023-12-14T09:22:36;1.50;;;1.10;;
1935;SDS011;969;49.892;10.896;2023-12-14T09:25:02;1.40;;;1.10;;
1935;SDS011;969;49.892;10.896;2023-12-14T09:27:28;1.00;;;0.90;;
1935;SDS011;969;49.892;10.896;2023-12-14T09:29:54;1.90;;;1.50;;
1935;SDS011;969;49.892;10.896;2023-12-14T09:32:20;1.40;;;1.03;;
1935;SDS011;969;49.892;10.896;2023-12-14T09:34:46;1.47;;;1.13;;
1935;SDS011;969;49.892;10.896;2023-12-14T09:37:11;1.77;;;1.10;;
1935;SDS011;969;49.892;10.896;2023-12-14T09:39:39;1.50;;;1.20;;
1935;SDS011;969;49.892;10.896;2023-12-14T09:42:05;1.70;;;1.00;;
1935;SDS011;969;49.892;10.896;2023-12-14T09:44:35;1.27;;;0.90;;
1935;SDS011;969;49.892;10.896;2023-12-14T09:47:02;1.40;;;1.20;;
1935;SDS011;969;49.892;10.896;2023-12-14T09:49:31;1.97;;;1.20;;
1935;SDS011;969;49.892;10.896;2023-12-14T09:51:57;1.10;;;0.87;;
1935;SDS011;969;49.892;10.896;2023-12-14T09:54:24;1.30;;;0.97;;
1935;SDS011;969;49.892;10.896;2023-12-14T09:56:51;1.07;;;0.97;;
1935;SDS011;969;49.892;10.896;2023-12-14T09:59:17;1.40;;;1.00;;
1935;SDS011;969;49.892;10.896;2023-12-14T10:01:43;1.10;;;1.00;;
1935;SDS011;969;49.892;10.896;2023-12-14T10:04:10;2.30;;;1.10;;
1935;SDS011;969;49.892;10.896;2023-12-14T10:06:37;1.30;;;1.10;;
1935;SDS011;969;49.892;10.896;2023-12-14T10:09:03;1.77;;;1.20;;
1935;SDS011;969;49.892;10.896;2023-12-14T10:11:40;1.57;;;1.10;;
1935;SDS011;969;49.892;10.896;2023-12-14T10:14:23;1.10;;;0.87;;
1935;SDS011;969;49.892;10.896;2023-12-14T10:16:50;1.80;;;0.93;;
1935;SDS011;969;49.892;10.896;2023-12-14T10:19:19;1.20;;;1.10;;
1935;SDS011;969;49.892;10.896;2023-12-14T10:21:46;1.60;;;0.90;;
1935;SDS011;969;49.892;10.896;2023-12-14T10:24:13;1.03;;;0.90;;
1935;SDS011;969;49.892;10.896;2023-12-14T10:26:39;1.30;;;1.10;;
1935;SDS011;969;49.892;10.896;2023-12-14T10:29:05;1.33;;;1.03;;
1935;SDS011;969;49.892;10.896;2023-12-14T10:31:31;1.73;;;1.17;;
1935;SDS011;969;49.892;10.896;2023-12-14T10:34:02;1.33;;;0.93;;
1935;SDS011;969;49.892;10.896;2023-12-14T10:36:31;1.10;;;0.80;;
1935;SDS011;969;49.892;10.896;2023-12-14T10:38:58;1.77;;;1.20;;
1935;SDS011;969;49.892;10.896;2023-12-14T10:41:25;1.40;;;1.00;;
1935;SDS011;969;49.892;10.896;2023-12-14T10:43:55;1.30;;;1.10;;
1935;SDS011;969;49.892;10.896;2023-12-14T10:46:21;1.10;;;0.87;;
1935;SDS011;969;49.892;10.896;2023-12-14T10:48:49;1.77;;;1.20;;
1935;SDS011;969;49.892;10.896;2023-12-14T10:51:17;1.20;;;1.00;;
1935;SDS011;969;49.892;10.896;2023-12-14T10:53:45;1.73;;;1.00;;
1935;SDS011;969;49.892;10.896;2023-12-14T10:56:14;1.33;;;0.97;;
1935;SDS011;969;49.892;10.896;2023-12-14T11:01:16;1.50;;;1.10;;
1935;SDS011;969;49.892;10.896;2023-12-14T11:03:44;1.60;;;0.90;;
1935;SDS011;969;49.892;10.896;2023-12-14T11:06:20;1.20;;;1.10;;
1935;SDS011;969;49.892;10.896;2023-12-14T11:09:09;2.10;;;1.00;;
1935;SDS011;969;49.892;10.896;2023-12-14T11:11:42;1.50;;;1.10;;
1935;SDS011;969;49.892;10.896;2023-12-14T11:14:13;2.10;;;1.17;;
1935;SDS011;969;49.892;10.896;2023-12-14T11:16:39;1.10;;;1.00;;
1935;SDS011;969;49.892;10.896;2023-12-14T11:24:30;1.10;;;0.90;;
1935;SDS011;969;49.892;10.896;2023-12-14T11:26:56;1.57;;;1.20;;
1935;SDS011;969;49.892;10.896;2023-12-14T11:29:22;1.30;;;1.10;;
1935;SDS011;969;49.892;10.896;2023-12-14T11:31:48;1.77;;;1.23;;
1935;SDS011;969;49.892;10.896;2023-12-14T11:34:16;1.30;;;1.07;;
1935;SDS011;969;49.892;10.896;2023-12-14T11:36:42;1.30;;;1.10;;
1935;SDS011;969;49.892;10.896;2023-12-14T11:39:11;1.63;;;1.10;;
1935;SDS011;969;49.892;10.896;2023-12-14T11:41:37;1.50;;;1.10;;
1935;SDS011;969;49.892;10.896;2023-12-14T11:44:03;1.17;;;0.90;;
1935;SDS011;969;49.892;10.896;2023-12-14T11:46:29;1.23;;;1.10;;
1935;SDS011;969;49.892;10.896;2023-12-14T11:48:58;1.20;;;1.10;;
1935;SDS011;969;49.892;10.896;2023-12-14T11:51:28;1.30;;;0.93;;
1935;SDS011;969;49.892;10.896;2023-12-14T11:53:55;1.50;;;1.00;;
1935;SDS011;969;49.892;10.896;2023-12-14T11:56:20;1.30;;;1.00;;
1935;SDS011;969;49.892;10.896;2023-12-14T11:58:48;1.20;;;1.00;;
1935;SDS011;969;49.892;10.896;2023-12-14T12:03:41;1.93;;;1.20;;
1935;SDS011;969;49.892;10.896;2023-12-14T12:06:08;1.53;;;1.10;;
1935;SDS011;969;49.892;10.896;2023-12-14T12:08:40;1.20;;;1.00;;
1935;SDS011;969;49.892;10.896;2023-12-14T12:11:06;1.77;;;1.37;;
1935;SDS011;969;49.892;10.896;2023-12-14T12:13:32;1.40;;;1.10;;
1935;SDS011;969;49.892;10.896;2023-12-14T12:15:59;1.40;;;1.10;;
1935;SDS011;969;49.892;10.896;2023-12-14T12:18:25;3.63;;;1.40;;
1935;SDS011;969;49.892;10.896;2023-12-14T12:20:51;1.90;;;1.50;;
1935;SDS011;969;49.892;10.896;2023-12-14T12:23:18;1.90;;;1.53;;
1935;SDS011;969;49.892;10.896;2023-12-14T12:25:44;3.87;;;1.93;;
1935;SDS011;969;49.892;10.896;2023-12-14T12:28:09;3.20;;;1.70;;
1935;SDS011;969;49.892;10.896;2023-12-14T12:30:35;1.70;;;1.40;;
1935;SDS011;969;49.892;10.896;2023-12-14T12:33:01;2.30;;;1.20;;
1935;SDS011;969;49.892;10.896;2023-12-14T12:35:26;1.40;;;1.30;;
1935;SDS011;969;49.892;10.896;2023-12-14T12:37:55;1.40;;;1.23;;
1935;SDS011;969;49.892;10.896;2023-12-14T12:40:24;2.07;;;1.60;;
1935;SDS011;969;49.892;10.896;2023-12-14T12:42:52;2.97;;;2.23;;
1935;SDS011;969;49.892;10.896;2023-12-14T12:45:18;2.90;;;1.70;;
1935;SDS011;969;49.892;10.896;2023-12-14T12:47:46;2.33;;;1.93;;
1935;SDS011;969;49.892;10.896;2023-12-14T12:50:12;4.60;;;3.07;;
1935;SDS011;969;49.892;10.896;2023-12-14T12:52:38;4.87;;;3.53;;
1935;SDS011;969;49.892;10.896;2023-12-14T12:55:07;9.70;;;6.37;;
1935;SDS011;969;49.892;10.896;2023-12-14T12:57:32;12.30;;;6.90;;
1935;SDS011;969;49.892;10.896;2023-12-14T12:59:58;15.20;;;8.43;;
1935;SDS011;969;49.892;10.896;2023-12-14T13:02:24;12.40;;;7.93;;
1935;SDS011;969;49.892;10.896;2023-12-14T13:04:49;16.07;;;9.90;;
1935;SDS011;969;49.892;10.896;2023-12-14T13:07:15;13.67;;;10.40;;
1935;SDS011;969;49.892;10.896;2023-12-14T13:09:41;21.87;;;13.10;;
1935;SDS011;969;49.892;10.896;2023-12-14T13:12:07;17.93;;;11.50;;
1935;SDS011;969;49.892;10.896;2023-12-14T13:14:32;20.90;;;12.03;;
1935;SDS011;969;49.892;10.896;2023-12-14T13:16:58;16.97;;;11.50;;
1935;SDS011;969;49.892;10.896;2023-12-14T13:19:24;19.30;;;12.60;;
1935;SDS011;969;49.892;10.896;2023-12-14T13:21:51;22.63;;;12.80;;
1935;SDS011;969;49.892;10.896;2023-12-14T13:24:17;20.00;;;11.40;;
1935;SDS011;969;49.892;10.896;2023-12-14T13:26:42;20.47;;;12.70;;
1935;SDS011;969;49.892;10.896;2023-12-14T13:29:08;28.47;;;16.00;;
1935;SDS011;969;49.892;10.896;2023-12-14T13:31:33;21.00;;;15.00;;
1935;SDS011;969;49.892;10.896;2023-12-14T13:33:59;29.50;;;21.00;;
1935;SDS011;969;49.892;10.896;2023-12-14T13:36:24;25.63;;;16.23;;
1935;SDS011;969;49.892;10.896;2023-12-14T13:38:50;23.07;;;14.63;;
1935;SDS011;969;49.892;10.896;2023-12-14T13:41:16;21.30;;;13.57;;
1935;SDS011;969;49.892;10.896;2023-12-14T13:43:41;19.10;;;13.63;;
1935;SDS011;969;49.892;10.896;2023-12-14T13:46:08;22.83;;;14.20;;
1935;SDS011;969;49.892;10.896;2023-12-14T13:48:34;24.43;;;14.70;;
1935;SDS011;969;49.892;10.896;2023-12-14T13:51:00;22.27;;;14.37;;
1935;SDS011;969;49.892;10.896;2023-12-14T13:53:25;27.50;;;16.27;;
1935;SDS011;969;49.892;10.896;2023-12-14T13:55:51;22.80;;;16.03;;
1935;SDS011;969;49.892;10.896;2023-12-14T13:58:17;25.13;;;15.47;;
1935;SDS011;969;49.892;10.896;2023-12-14T14:00:43;28.23;;;18.30;;
1935;SDS011;969;49.892;10.896;2023-12-14T14:03:09;25.13;;;15.67;;
1935;SDS011;969;49.892;10.896;2023-12-14T14:05:35;26.97;;;17.00;;
1935;SDS011;969;49.892;10.896;2023-12-14T14:08:01;24.83;;;16.93;;
1935;SDS011;969;49.892;10.896;2023-12-14T14:10:27;23.07;;;15.30;;
1935;SDS011;969;49.892;10.896;2023-12-14T14:12:52;22.03;;;16.17;;
1935;SDS011;969;49.892;10.896;2023-12-14T14:15:18;27.97;;;16.57;;
1935;SDS011;969;49.892;10.896;2023-12-14T14:17:47;27.20;;;17.83;;
1935;SDS011;969;49.892;10.896;2023-12-14T14:20:17;29.07;;;20.30;;
1935;SDS011;969;49.892;10.896;2023-12-14T14:22:43;21.77;;;15.87;;
1935;SDS011;969;49.892;10.896;2023-12-14T14:25:09;22.47;;;15.87;;
1935;SDS011;969;49.892;10.896;2023-12-14T14:27:35;21.87;;;15.73;;
1935;SDS011;969;49.892;10.896;2023-12-14T14:30:01;21.90;;;15.60;;
1935;SDS011;969;49.892;10.896;2023-12-14T14:32:27;25.73;;;17.00;;
1935;SDS011;969;49.892;10.896;2023-12-14T14:34:53;22.90;;;15.80;;
1935;SDS011;969;49.892;10.896;2023-12-14T14:37:20;22.07;;;15.13;;
1935;SDS011;969;49.892;10.896;2023-12-14T14:39:45;24.57;;;15.40;;
1935;SDS011;969;49.892;10.896;2023-12-14T14:42:12;23.73;;;15.70;;
1935;SDS011;969;49.892;10.896;2023-12-14T14:44:38;24.23;;;17.10;;
1935;SDS011;969;49.892;10.896;2023-12-14T14:47:04;25.83;;;16.80;;
1935;SDS011;969;49.892;10.896;2023-12-14T14:49:30;22.90;;;16.50;;
1935;SDS011;969;49.892;10.896;2023-12-14T14:51:55;23.53;;;16.90;;
1935;SDS011;969;49.892;10.896;2023-12-14T14:54:21;18.80;;;14.03;;
1935;SDS011;969;49.892;10.896;2023-12-14T14:56:47;24.03;;;15.93;;
1935;SDS011;969;49.892;10.896;2023-12-14T14:59:12;23.67;;;15.53;;
1935;SDS011;969;49.892;10.896;2023-12-14T15:01:40;27.57;;;15.13;;
1935;SDS011;969;49.892;10.896;2023-12-14T15:04:06;21.90;;;14.30;;
1935;SDS011;969;49.892;10.896;2023-12-14T15:06:32;24.47;;;15.27;;
1935;SDS011;969;49.892;10.896;2023-12-14T15:08:58;22.70;;;15.90;;
1935;SDS011;969;49.892;10.896;2023-12-14T15:11:24;19.10;;;14.60;;
1935;SDS011;969;49.892;10.896;2023-12-14T15:13:50;20.60;;;14.10;;